createdAt,value
2018-11-03T00:02:01.534Z,7.00
2018-11-03T00:04:32.944Z,7.00
2018-11-03T00:07:03.729Z,7.00
2018-11-03T00:09:34.463Z,7.00
2018-11-03T00:12:06.260Z,7.00
2018-11-03T00:14:37.417Z,6.90
2018-11-03T00:17:10.212Z,7.30
2018-11-03T00:19:41.065Z,6.90
2018-11-03T00:22:13.158Z,6.90
2018-11-03T00:24:44.038Z,6.80
2018-11-03T00:27:15.256Z,6.80
2018-11-03T00:29:46.188Z,6.80
2018-11-03T00:32:16.999Z,6.80
2018-11-03T00:34:47.843Z,6.80
2018-11-03T00:37:18.936Z,6.80
2018-11-03T00:39:50.290Z,6.80
2018-11-03T00:42:21.171Z,6.70
2018-11-03T00:44:52.316Z,6.70
2018-11-03T00:47:23.319Z,6.70
2018-11-03T00:49:54.216Z,6.70
2018-11-03T00:52:25.551Z,6.70
2018-11-03T00:54:57.516Z,6.70
2018-11-03T00:57:28.609Z,6.60
2018-11-03T00:59:59.759Z,6.60
2018-11-03T01:02:30.588Z,6.60
2018-11-03T01:05:01.558Z,6.60
2018-11-03T01:07:32.125Z,6.50
2018-11-03T01:10:04.036Z,6.50
2018-11-03T01:12:35.230Z,6.50
2018-11-03T01:15:07.631Z,6.60
2018-11-03T01:17:38.416Z,6.50
2018-11-03T01:20:12.320Z,6.60
2018-11-03T01:22:43.482Z,6.60
2018-11-03T01:25:14.368Z,6.60
2018-11-03T01:27:45.398Z,6.60
2018-11-03T01:30:17.425Z,6.60
2018-11-03T01:32:48.567Z,6.70
2018-11-03T01:35:19.502Z,6.70
2018-11-03T01:37:50.261Z,6.70
2018-11-03T01:40:21.148Z,6.70
2018-11-03T01:42:52.040Z,6.80
2018-11-03T01:45:22.813Z,6.80
2018-11-03T01:47:53.689Z,6.80
2018-11-03T01:50:24.332Z,6.80
2018-11-03T01:52:55.075Z,6.80
2018-11-03T01:55:25.956Z,6.80
2018-11-03T01:57:56.781Z,6.80
2018-11-03T02:00:27.857Z,6.80
2018-11-03T02:02:58.914Z,6.80
2018-11-03T02:05:29.850Z,6.80
2018-11-03T02:08:00.569Z,6.80
2018-11-03T02:10:31.443Z,6.80
2018-11-03T02:13:02.462Z,6.80
2018-11-03T02:15:33.220Z,6.80
2018-11-03T02:18:03.956Z,6.80
2018-11-03T02:20:35.021Z,6.80
2018-11-03T02:23:06.306Z,6.70
2018-11-03T02:25:37.282Z,6.80
2018-11-03T02:28:08.322Z,6.80
2018-11-03T02:30:39.200Z,6.80
2018-11-03T02:33:16.670Z,6.70
2018-11-03T02:35:47.847Z,6.70
2018-11-03T02:38:18.850Z,6.70
2018-11-03T02:40:49.765Z,6.70
2018-11-03T02:43:20.536Z,6.70
2018-11-03T02:45:51.538Z,6.70
2018-11-03T02:48:22.416Z,6.70
2018-11-03T02:50:53.078Z,6.70
2018-11-03T02:53:24.595Z,6.70
2018-11-03T02:55:55.450Z,6.70
2018-11-03T02:58:26.281Z,6.70
2018-11-03T03:00:57.159Z,6.70
2018-11-03T03:03:28.009Z,6.40
2018-11-03T03:05:58.814Z,6.70
2018-11-03T03:08:29.862Z,6.70
2018-11-03T03:11:00.609Z,6.70
2018-11-03T03:13:31.530Z,6.70
2018-11-03T03:16:02.489Z,6.70
2018-11-03T03:18:33.232Z,6.70
2018-11-03T03:21:04.559Z,6.70
2018-11-03T03:23:35.396Z,6.60
2018-11-03T03:26:07.603Z,6.60
2018-11-03T03:28:38.703Z,6.60
2018-11-03T03:31:09.763Z,6.60
2018-11-03T03:33:40.991Z,6.60
2018-11-03T03:36:11.994Z,6.60
2018-11-03T03:38:42.881Z,6.60
2018-11-03T03:41:13.571Z,6.60
2018-11-03T03:43:44.623Z,6.50
2018-11-03T03:46:15.589Z,6.50
2018-11-03T03:48:46.482Z,6.50
2018-11-03T03:51:17.179Z,6.50
2018-11-03T03:53:48.265Z,6.50
2018-11-03T03:56:19.629Z,6.50
2018-11-03T03:58:50.504Z,6.50
2018-11-03T04:01:21.525Z,6.50
2018-11-03T04:03:52.398Z,6.50
2018-11-03T04:06:23.297Z,6.40
2018-11-03T04:08:54.109Z,6.40
2018-11-03T04:11:24.917Z,6.40
2018-11-03T04:13:55.654Z,6.40
2018-11-03T04:16:26.606Z,6.40
2018-11-03T04:18:57.478Z,6.30
2018-11-03T04:21:29.563Z,6.30
2018-11-03T04:24:00.392Z,6.30
2018-11-03T04:26:31.685Z,6.30
2018-11-03T04:29:02.714Z,6.30
2018-11-03T04:31:34.124Z,6.30
2018-11-03T04:34:05.225Z,6.30
2018-11-03T04:36:35.693Z,6.20
2018-11-03T04:39:07.801Z,6.20
2018-11-03T04:41:38.582Z,6.20
2018-11-03T04:44:09.844Z,6.20
2018-11-03T04:46:40.568Z,6.20
2018-11-03T04:49:11.792Z,6.10
2018-11-03T04:51:42.650Z,6.20
2018-11-03T04:54:13.748Z,6.20
2018-11-03T04:56:44.833Z,6.20
2018-11-03T04:59:15.929Z,6.20
2018-11-03T05:01:47.415Z,7.60
2018-11-03T05:04:18.429Z,6.20
2018-11-03T05:06:49.373Z,6.20
2018-11-03T05:09:20.220Z,6.20
2018-11-03T05:11:51.435Z,6.20
2018-11-03T05:14:22.204Z,6.20
2018-11-03T05:16:53.180Z,6.20
2018-11-03T05:19:23.971Z,6.20
2018-11-03T05:21:54.772Z,6.20
2018-11-03T05:24:25.520Z,6.20
2018-11-03T05:26:56.517Z,6.20
2018-11-03T05:29:27.389Z,6.20
2018-11-03T05:31:58.255Z,6.20
2018-11-03T05:34:29.144Z,6.20
2018-11-03T05:37:00.003Z,6.20
2018-11-03T05:39:30.853Z,6.20
2018-11-03T05:42:01.653Z,6.20
2018-11-03T05:44:32.485Z,6.10
2018-11-03T05:47:03.578Z,6.20
2018-11-03T05:49:34.622Z,6.10
2018-11-03T05:52:05.916Z,6.10
2018-11-03T05:54:36.739Z,6.80
2018-11-03T05:57:07.734Z,6.00
2018-11-03T05:59:38.724Z,6.00
2018-11-03T06:02:09.432Z,6.00
2018-11-03T06:04:40.159Z,6.00
2018-11-03T06:07:11.079Z,6.00
2018-11-03T06:09:41.897Z,6.00
2018-11-03T06:12:12.780Z,6.00
2018-11-03T06:14:43.889Z,6.00
2018-11-03T06:17:14.862Z,6.00
2018-11-03T06:19:45.472Z,5.90
2018-11-03T06:22:16.471Z,5.90
2018-11-03T06:24:48.383Z,6.00
2018-11-03T06:27:19.461Z,6.00
2018-11-03T06:29:50.546Z,5.90
2018-11-03T06:32:21.029Z,6.00
2018-11-03T06:34:52.526Z,6.00
2018-11-03T06:37:23.422Z,5.90
2018-11-03T06:39:54.157Z,6.00
2018-11-03T06:42:25.451Z,6.00
2018-11-03T06:44:56.164Z,6.00
2018-11-03T06:47:27.243Z,6.00
2018-11-03T06:49:58.024Z,6.00
2018-11-03T06:52:29.054Z,6.10
2018-11-03T06:54:59.828Z,6.10
2018-11-03T06:57:30.724Z,6.10
2018-11-03T07:00:01.806Z,6.20
2018-11-03T07:02:35.558Z,6.10
2018-11-03T07:05:08.181Z,6.20
2018-11-03T07:07:39.390Z,6.20
2018-11-03T07:10:11.217Z,6.30
2018-11-03T07:12:48.705Z,6.30
2018-11-03T07:15:19.565Z,6.30
2018-11-03T07:17:50.369Z,6.40
2018-11-03T07:20:21.103Z,6.40
2018-11-03T07:22:52.002Z,6.40
2018-11-03T07:25:23.050Z,6.50
2018-11-03T07:27:54.005Z,6.50
2018-11-03T07:30:24.592Z,6.60
2018-11-03T07:32:55.752Z,6.70
2018-11-03T07:35:26.776Z,6.70
2018-11-03T07:37:57.703Z,6.70
2018-11-03T07:40:28.415Z,6.80
2018-11-03T07:42:59.277Z,6.80
2018-11-03T07:45:30.281Z,6.90
2018-11-03T07:48:01.030Z,7.00
2018-11-03T07:50:32.041Z,7.00
2018-11-03T07:53:03.260Z,7.10
2018-11-03T07:55:34.146Z,7.20
2018-11-03T07:58:05.550Z,7.30
2018-11-03T08:00:36.509Z,7.30
2018-11-03T08:03:07.379Z,7.40
2018-11-03T08:05:41.452Z,7.40
2018-11-03T08:08:12.370Z,7.50
2018-11-03T08:10:43.065Z,7.50
2018-11-03T08:13:20.778Z,7.60
2018-11-03T08:15:51.739Z,7.60
2018-11-03T08:18:22.713Z,7.70
2018-11-03T08:20:53.911Z,7.80
2018-11-03T08:23:25.045Z,7.80
2018-11-03T08:25:56.053Z,7.90
2018-11-03T08:28:26.859Z,7.90
2018-11-03T08:30:57.433Z,8.00
2018-11-03T08:33:28.524Z,8.10
2018-11-03T08:35:59.437Z,8.10
2018-11-03T08:38:30.427Z,8.20
2018-11-03T08:41:01.531Z,8.30
2018-11-03T08:43:32.217Z,8.40
2018-11-03T08:46:03.604Z,8.50
2018-11-03T08:48:34.676Z,8.60
2018-11-03T08:51:06.193Z,8.70
2018-11-03T08:53:43.529Z,8.80
2018-11-03T08:56:14.445Z,9.00
2018-11-03T08:58:45.290Z,9.10
2018-11-03T09:01:16.353Z,9.30
2018-11-03T09:03:47.378Z,9.50
2018-11-03T09:06:18.576Z,9.80
2018-11-03T09:08:49.894Z,9.90
2018-11-03T09:11:20.686Z,10.20
2018-11-03T09:13:51.723Z,10.40
2018-11-03T09:16:22.445Z,10.70
2018-11-03T09:18:53.314Z,10.90
2018-11-03T09:21:24.221Z,11.20
2018-11-03T09:23:54.989Z,11.40
2018-11-03T09:26:25.921Z,11.80
2018-11-03T09:28:57.417Z,12.10
2018-11-03T09:31:28.227Z,12.50
2018-11-03T09:33:59.200Z,12.80
2018-11-03T09:36:30.143Z,12.40
2018-11-03T09:39:00.891Z,13.50
2018-11-03T09:41:31.931Z,13.80
2018-11-03T09:44:02.802Z,14.10
2018-11-03T09:46:33.561Z,14.30
2018-11-03T09:49:05.001Z,14.50
2018-11-03T09:51:36.290Z,14.70
2018-11-03T09:54:07.643Z,14.90
2018-11-03T09:56:38.792Z,15.20
2018-11-03T09:59:10.110Z,15.40
2018-11-03T10:01:41.088Z,15.60
2018-11-03T10:04:11.922Z,15.80
2018-11-03T10:06:43.005Z,16.00
2018-11-03T10:09:13.921Z,16.10
2018-11-03T10:11:45.200Z,16.30
2018-11-03T10:14:16.405Z,16.50
2018-11-03T10:16:47.482Z,16.70
2018-11-03T10:19:18.565Z,16.90
2018-11-03T10:21:49.424Z,17.10
2018-11-03T10:24:20.454Z,17.30
2018-11-03T10:26:51.269Z,17.50
2018-11-03T10:29:22.289Z,17.70
2018-11-03T10:31:53.524Z,18.00
2018-11-03T10:34:24.224Z,18.10
2018-11-03T10:36:55.326Z,18.30
2018-11-03T10:39:26.399Z,18.50
2018-11-03T10:41:57.329Z,18.70
2018-11-03T10:44:28.458Z,19.00
2018-11-03T10:46:59.656Z,19.10
2018-11-03T10:49:30.799Z,19.10
2018-11-03T10:52:01.646Z,19.10
2018-11-03T10:54:33.061Z,19.10
2018-11-03T10:57:03.864Z,19.10
2018-11-03T10:59:35.169Z,19.10
2018-11-03T11:02:11.778Z,19.10
2018-11-03T11:04:47.801Z,19.20
2018-11-03T11:07:23.653Z,19.30
2018-11-03T11:09:59.925Z,19.40
2018-11-03T11:12:38.529Z,19.40
2018-11-03T11:15:10.597Z,19.50
2018-11-03T11:17:41.562Z,19.40
2018-11-03T11:20:12.621Z,19.40
2018-11-03T11:22:43.648Z,19.60
2018-11-03T11:25:14.807Z,19.70
2018-11-03T11:27:45.952Z,19.80
2018-11-03T11:30:16.903Z,19.90
2018-11-03T11:32:47.917Z,20.00
2018-11-03T11:35:20.656Z,20.10
2018-11-03T11:37:51.365Z,20.10
2018-11-03T11:40:22.174Z,20.20
2018-11-03T11:42:53.171Z,20.20
2018-11-03T11:45:24.421Z,20.30
2018-11-03T11:47:55.425Z,20.30
2018-11-03T11:50:26.313Z,20.30
2018-11-03T11:52:57.209Z,20.40
2018-11-03T11:55:28.709Z,20.50
2018-11-03T11:57:59.763Z,20.10
2018-11-03T12:00:31.492Z,20.50
2018-11-03T12:03:02.633Z,20.50
2018-11-03T12:05:33.724Z,20.50
2018-11-03T12:08:04.862Z,20.40
2018-11-03T12:10:35.875Z,20.60
2018-11-03T12:13:07.390Z,20.60
2018-11-03T12:15:38.315Z,20.70
2018-11-03T12:18:09.280Z,20.70
2018-11-03T12:20:40.368Z,20.70
2018-11-03T12:23:11.554Z,20.60
2018-11-03T12:25:42.809Z,20.60
2018-11-03T12:28:14.530Z,20.50
2018-11-03T12:30:45.618Z,20.30
2018-11-03T12:33:16.566Z,20.20
2018-11-03T12:35:47.658Z,19.90
2018-11-03T12:38:18.598Z,19.70
2018-11-03T12:40:49.554Z,19.40
2018-11-03T12:43:20.678Z,19.20
2018-11-03T12:45:51.676Z,18.90
2018-11-03T12:48:22.792Z,18.70
2018-11-03T12:50:53.685Z,19.00
2018-11-03T12:53:24.722Z,18.30
2018-11-03T12:55:55.687Z,18.00
2018-11-03T12:58:26.328Z,17.80
2018-11-03T13:00:57.171Z,17.60
2018-11-03T13:03:27.950Z,17.40
2018-11-03T13:05:58.797Z,17.20
2018-11-03T13:08:29.703Z,17.00
2018-11-03T13:11:00.989Z,16.80
2018-11-03T13:13:31.545Z,16.60
2018-11-03T13:16:02.354Z,16.40
2018-11-03T13:18:33.560Z,16.30
2018-11-03T13:21:04.427Z,16.10
2018-11-03T13:23:35.272Z,16.00
2018-11-03T13:26:06.429Z,15.80
2018-11-03T13:28:38.272Z,15.70
2018-11-03T13:31:10.363Z,15.60
2018-11-03T13:33:41.399Z,15.60
2018-11-03T13:36:12.348Z,15.50
2018-11-03T13:38:43.294Z,15.60
2018-11-03T13:41:14.194Z,15.70
2018-11-03T13:43:45.130Z,15.80
2018-11-03T13:46:15.978Z,15.90
2018-11-03T13:48:47.424Z,17.40
2018-11-03T13:51:18.740Z,15.90
2018-11-03T13:53:50.014Z,15.80
2018-11-03T13:56:21.016Z,15.70
2018-11-03T13:58:52.388Z,15.60
2018-11-03T14:01:23.431Z,15.50
2018-11-03T14:03:54.426Z,15.50
2018-11-03T14:06:24.988Z,15.40
2018-11-03T14:08:55.963Z,15.40
2018-11-03T14:11:27.152Z,15.30
2018-11-03T14:13:58.137Z,15.20
2018-11-03T14:16:29.031Z,15.20
2018-11-03T14:18:59.940Z,15.10
2018-11-03T14:21:30.820Z,15.00
2018-11-03T14:24:02.480Z,14.80
2018-11-03T14:26:33.308Z,14.90
2018-11-03T14:29:04.645Z,14.80
2018-11-03T14:31:36.301Z,14.70
2018-11-03T14:34:07.173Z,14.70
2018-11-03T14:36:38.217Z,14.60
2018-11-03T14:39:10.479Z,14.50
2018-11-03T14:41:42.230Z,14.50
2018-11-03T14:44:13.226Z,14.40
2018-11-03T14:46:44.257Z,14.40
2018-11-03T14:49:15.492Z,14.40
2018-11-03T14:51:46.858Z,14.40
2018-11-03T14:54:17.629Z,14.30
2018-11-03T14:56:48.471Z,14.30
2018-11-03T14:59:19.300Z,14.20
2018-11-03T15:01:50.066Z,14.20
2018-11-03T15:04:20.852Z,13.20
2018-11-03T15:06:51.709Z,14.10
2018-11-03T15:09:22.951Z,14.70
2018-11-03T15:11:54.107Z,14.10
2018-11-03T15:14:25.353Z,14.00
2018-11-03T15:16:56.353Z,14.00
2018-11-03T15:19:27.288Z,13.90
2018-11-03T15:21:58.018Z,13.80
2018-11-03T15:24:28.762Z,13.80
2018-11-03T15:26:59.787Z,13.80
2018-11-03T15:29:30.776Z,13.70
2018-11-03T15:32:03.078Z,13.70
2018-11-03T15:34:34.072Z,13.60
2018-11-03T15:37:05.156Z,13.60
2018-11-03T15:39:36.177Z,13.50
2018-11-03T15:42:07.428Z,13.50
2018-11-03T15:44:38.203Z,13.40
2018-11-03T15:47:09.175Z,13.40
2018-11-03T15:49:40.029Z,13.30
2018-11-03T15:52:11.415Z,13.20
2018-11-03T15:54:42.319Z,13.20
2018-11-03T15:57:13.335Z,13.10
2018-11-03T15:59:44.173Z,13.10
2018-11-03T16:02:15.253Z,13.00
2018-11-03T16:04:46.005Z,12.90
2018-11-03T16:07:16.858Z,12.80
2018-11-03T16:09:47.747Z,12.80
2018-11-03T16:12:19.392Z,12.70
2018-11-03T16:14:50.434Z,12.70
2018-11-03T16:17:21.298Z,12.60
2018-11-03T16:19:52.084Z,12.50
2018-11-03T16:22:22.899Z,12.50
2018-11-03T16:24:53.848Z,12.40
2018-11-03T16:27:24.678Z,12.30
2018-11-03T16:29:55.573Z,12.30
2018-11-03T16:32:26.780Z,12.20
2018-11-03T16:34:57.735Z,12.10
2018-11-03T16:37:28.601Z,12.10
2018-11-03T16:39:59.511Z,12.00
2018-11-03T16:42:30.263Z,11.90
2018-11-03T16:45:01.257Z,11.80
2018-11-03T16:47:32.048Z,11.70
2018-11-03T16:50:02.834Z,11.70
2018-11-03T16:52:33.979Z,11.70
2018-11-03T16:55:06.102Z,11.50
2018-11-03T16:57:37.605Z,11.50
2018-11-03T17:00:13.904Z,11.40
2018-11-03T17:02:44.878Z,11.30
2018-11-03T17:05:16.323Z,11.30
2018-11-03T17:07:47.151Z,11.20
2018-11-03T17:10:18.312Z,11.20
2018-11-03T17:12:56.370Z,11.10
2018-11-03T17:15:27.445Z,11.10
2018-11-03T17:17:58.444Z,11.00
2018-11-03T17:20:29.054Z,10.90
2018-11-03T17:23:00.013Z,10.90
2018-11-03T17:25:30.973Z,10.80
2018-11-03T17:28:01.895Z,10.70
2018-11-03T17:30:32.852Z,10.60
2018-11-03T17:33:04.011Z,10.60
2018-11-03T17:35:34.811Z,10.50
2018-11-03T17:38:06.191Z,10.50
2018-11-03T17:40:37.051Z,10.40
2018-11-03T17:43:08.231Z,10.40
2018-11-03T17:45:39.312Z,10.30
2018-11-03T17:48:10.296Z,11.30
2018-11-03T17:50:41.130Z,10.20
2018-11-03T17:53:12.077Z,10.20
2018-11-03T17:55:43.043Z,10.10
2018-11-03T17:58:13.815Z,10.00
2018-11-03T18:00:44.769Z,10.00
2018-11-03T18:03:16.085Z,10.00
2018-11-03T18:05:47.079Z,9.90
2018-11-03T18:08:17.897Z,9.90
2018-11-03T18:10:48.800Z,9.90
2018-11-03T18:13:19.806Z,9.90
2018-11-03T18:15:50.619Z,9.90
2018-11-03T18:18:21.482Z,9.90
2018-11-03T18:20:52.267Z,9.90
2018-11-03T18:23:23.179Z,9.90
2018-11-03T18:25:55.412Z,10.00
2018-11-03T18:28:26.464Z,10.00
2018-11-03T18:30:57.458Z,9.90
2018-11-03T18:33:29.210Z,9.90
2018-11-03T18:36:00.162Z,9.90
2018-11-03T18:38:30.770Z,9.90
2018-11-03T18:41:02.182Z,9.90
2018-11-03T18:43:33.630Z,9.80
2018-11-03T18:46:04.606Z,9.80
2018-11-03T18:48:35.799Z,9.70
2018-11-03T18:51:07.153Z,9.60
2018-11-03T18:53:38.076Z,9.60
2018-11-03T18:56:09.155Z,9.50
2018-11-03T18:58:41.074Z,9.40
2018-11-03T19:01:11.921Z,9.40
2018-11-03T19:03:43.287Z,9.30
2018-11-03T19:06:14.095Z,9.20
2018-11-03T19:08:44.941Z,9.20
2018-11-03T19:11:16.020Z,9.10
2018-11-03T19:13:46.926Z,9.00
2018-11-03T19:16:17.874Z,8.90
2018-11-03T19:18:48.689Z,8.90
2018-11-03T19:21:19.686Z,8.80
2018-11-03T19:23:50.660Z,8.80
2018-11-03T19:26:21.831Z,8.70
2018-11-03T19:28:52.547Z,8.70
2018-11-03T19:31:23.626Z,8.60
2018-11-03T19:33:54.373Z,8.60
2018-11-03T19:36:25.318Z,8.50
2018-11-03T19:38:56.278Z,8.40
2018-11-03T19:41:34.217Z,8.40
2018-11-03T19:44:05.688Z,8.40
2018-11-03T19:46:36.756Z,8.30
2018-11-03T19:49:08.677Z,8.30
2018-11-03T19:51:39.587Z,8.30
2018-11-03T19:54:10.694Z,8.20
2018-11-03T19:56:41.706Z,7.90
2018-11-03T19:59:12.668Z,8.20
2018-11-03T20:01:43.559Z,8.10
2018-11-03T20:04:14.718Z,8.10
2018-11-03T20:06:45.637Z,8.10
2018-11-03T20:09:16.514Z,8.00
2018-11-03T20:11:47.525Z,8.00
2018-11-03T20:14:18.401Z,7.90
2018-11-03T20:16:49.369Z,7.90
2018-11-03T20:19:20.510Z,7.90
2018-11-03T20:21:57.930Z,7.90
2018-11-03T20:24:28.939Z,7.80
2018-11-03T20:26:59.909Z,7.80
2018-11-03T20:29:31.038Z,7.80
2018-11-03T20:32:01.798Z,7.60
2018-11-03T20:34:32.778Z,7.70
2018-11-03T20:37:03.703Z,7.60
2018-11-03T20:39:34.490Z,7.60
2018-11-03T20:42:05.992Z,7.60
2018-11-03T20:44:36.849Z,7.50
2018-11-03T20:47:07.681Z,7.50
2018-11-03T20:49:39.099Z,7.50
2018-11-03T20:52:10.347Z,7.40
2018-11-03T20:54:41.152Z,7.40
2018-11-03T20:57:11.988Z,7.40
2018-11-03T20:59:42.903Z,7.30
2018-11-03T21:02:13.938Z,7.30
2018-11-03T21:04:44.668Z,7.30
2018-11-03T21:07:15.588Z,7.20
2018-11-03T21:09:46.408Z,7.20
2018-11-03T21:12:17.646Z,7.20
2018-11-03T21:14:48.906Z,7.10
2018-11-03T21:17:19.780Z,7.10
2018-11-03T21:19:50.853Z,7.10
2018-11-03T21:22:22.014Z,7.00
2018-11-03T21:24:52.595Z,7.00
2018-11-03T21:27:23.402Z,7.00
2018-11-03T21:29:53.806Z,6.90
2018-11-03T21:32:24.860Z,7.40
2018-11-03T21:34:56.382Z,6.90
2018-11-03T21:37:27.248Z,6.80
2018-11-03T21:39:58.278Z,6.80
2018-11-03T21:42:29.130Z,6.80
2018-11-03T21:44:59.850Z,6.80
2018-11-03T21:47:31.130Z,6.80
2018-11-03T21:50:02.141Z,6.80
2018-11-03T21:52:32.980Z,6.70
2018-11-03T21:55:04.108Z,6.80
2018-11-03T21:57:35.324Z,6.70
2018-11-03T22:00:08.371Z,6.70
2018-11-03T22:02:39.301Z,6.70
2018-11-03T22:05:11.948Z,6.70
2018-11-03T22:07:43.883Z,6.70
2018-11-03T22:10:14.855Z,6.60
2018-11-03T22:12:45.553Z,6.70
2018-11-03T22:15:16.333Z,6.60
2018-11-03T22:17:47.214Z,6.60
2018-11-03T22:20:19.104Z,6.60
2018-11-03T22:22:49.840Z,6.60
2018-11-03T22:25:20.758Z,6.50
2018-11-03T22:27:51.678Z,6.50
2018-11-03T22:30:22.798Z,6.50
2018-11-03T22:32:53.685Z,6.50
2018-11-03T22:35:24.458Z,6.50
2018-11-03T22:37:55.343Z,6.50
2018-11-03T22:40:26.777Z,6.50
2018-11-03T22:42:57.657Z,6.40
2018-11-03T22:45:28.532Z,6.40
2018-11-03T22:47:59.866Z,6.40
2018-11-03T22:50:30.752Z,6.40
2018-11-03T22:53:01.437Z,6.40
2018-11-03T22:55:32.213Z,6.40
2018-11-03T22:58:03.018Z,6.40
2018-11-03T23:00:38.851Z,6.30
2018-11-03T23:03:09.898Z,6.30
2018-11-03T23:05:40.918Z,6.30
2018-11-03T23:08:12.027Z,6.30
2018-11-03T23:10:42.777Z,6.30
2018-11-03T23:13:14.042Z,6.30
2018-11-03T23:15:45.192Z,6.20
2018-11-03T23:18:15.585Z,6.20
2018-11-03T23:20:46.586Z,6.20
2018-11-03T23:23:17.486Z,6.20
2018-11-03T23:25:48.457Z,6.20
2018-11-03T23:28:19.685Z,6.20
2018-11-03T23:30:50.589Z,6.10
2018-11-03T23:33:21.711Z,6.10
2018-11-03T23:35:52.526Z,6.10
2018-11-03T23:38:23.396Z,6.10
2018-11-03T23:40:54.294Z,6.10
2018-11-03T23:43:25.637Z,6.10
2018-11-03T23:45:56.528Z,6.10
2018-11-03T23:48:27.305Z,6.10
2018-11-03T23:50:58.344Z,6.10
2018-11-03T23:53:30.029Z,6.10
2018-11-03T23:56:00.884Z,6.00
2018-11-03T23:58:31.676Z,6.00
